Boughtonville, Ohio
Current Conditions -  °F | °C
As of 8:23 PM on Thursday 27 Nov 2014 (Local Time) from KMFD Reporting Station
Light Snow Light Snow  
Wind Chill: 17°   Ceiling: 1300
Heat Index: 28°   Visibility: 4mi
Dew Point: 26°   Wind: 13mph
Humidity: 92%   Direction: 270°W
Pressure: 30.23"   Gusts: 20mph
Location:  41.0768°N, 82.7214°W
Report Text: KMFD 280123Z 27011G17KT 4SM -SN BR SCT006 OVC013 M02/M03 A3023 RMK AO2 P0003 T10221033
Loading
Personal Weather Stations






























Interactive Weather Map New forecast layout! Learn more

10-Day Weather Forecast

Advertisements
Track Severe Weather on mobile